createdAt,value
2018-12-11T00:00:29.383Z,10.30
2018-12-11T00:02:55.707Z,15.03
2018-12-11T00:05:22.087Z,7.83
2018-12-11T00:07:48.481Z,7.47
2018-12-11T00:10:15.071Z,10.00
2018-12-11T00:12:41.411Z,9.68
2018-12-11T00:15:07.999Z,8.43
2018-12-11T00:17:34.407Z,8.58
2018-12-11T00:20:00.867Z,6.92
2018-12-11T00:22:27.254Z,7.65
2018-12-11T00:24:53.537Z,6.45
2018-12-11T00:27:19.870Z,9.03
2018-12-11T00:29:46.144Z,9.75
2018-12-11T00:32:12.470Z,8.00
2018-12-11T00:34:38.760Z,8.03
2018-12-11T00:37:05.085Z,4.78
2018-12-11T00:39:31.416Z,6.35
2018-12-11T00:41:57.788Z,7.03
2018-12-11T00:44:24.161Z,5.78
2018-12-11T00:46:50.483Z,8.40
2018-12-11T00:49:16.776Z,8.28
2018-12-11T00:51:43.087Z,6.10
2018-12-11T00:54:09.392Z,10.40
2018-12-11T00:56:35.735Z,6.62
2018-12-11T00:59:02.011Z,6.78
2018-12-11T01:01:28.393Z,9.95
2018-12-11T01:03:54.727Z,8.28
2018-12-11T01:06:23.050Z,9.78
2018-12-11T01:08:49.445Z,6.45
2018-12-11T01:11:15.769Z,10.70
2018-12-11T01:13:42.072Z,4.97
2018-12-11T01:16:08.377Z,9.88
2018-12-11T01:18:34.703Z,4.17
2018-12-11T01:21:01.088Z,7.97
2018-12-11T01:23:27.376Z,6.83
2018-12-11T01:25:53.783Z,7.85
2018-12-11T01:28:20.110Z,3.87
2018-12-11T01:30:46.451Z,3.67
2018-12-11T01:33:12.770Z,5.05
2018-12-11T01:35:39.096Z,6.45
2018-12-11T01:38:05.533Z,7.30
2018-12-11T01:40:31.916Z,8.70
2018-12-11T01:42:58.203Z,11.35
2018-12-11T01:45:24.574Z,5.83
2018-12-11T01:47:50.854Z,5.67
2018-12-11T01:50:17.172Z,4.40
2018-12-11T01:52:43.540Z,6.65
2018-12-11T01:55:09.846Z,6.50
2018-12-11T01:57:36.128Z,4.62
2018-12-11T02:00:04.805Z,5.65
2018-12-11T02:02:31.130Z,6.78
2018-12-11T02:04:57.465Z,15.78
2018-12-11T02:07:23.801Z,7.90
2018-12-11T02:09:50.147Z,10.08
2018-12-11T02:12:16.493Z,5.97
2018-12-11T02:14:42.824Z,9.25
2018-12-11T02:17:09.135Z,6.22
2018-12-11T02:19:35.477Z,7.60
2018-12-11T02:22:01.826Z,9.80
2018-12-11T02:24:28.168Z,9.58
2018-12-11T02:26:54.499Z,7.53
2018-12-11T02:29:20.917Z,9.13
2018-12-11T02:31:47.295Z,6.67
2018-12-11T02:34:13.775Z,7.97
2018-12-11T02:36:40.094Z,12.05
2018-12-11T02:39:06.537Z,7.47
2018-12-11T02:41:32.938Z,8.40
2018-12-11T02:43:59.272Z,7.90
2018-12-11T02:46:25.624Z,9.35
2018-12-11T02:48:51.982Z,9.10
2018-12-11T02:51:18.299Z,8.90
2018-12-11T02:53:44.676Z,9.60
2018-12-11T02:56:11.021Z,9.43
2018-12-11T02:58:37.348Z,9.58
2018-12-11T03:01:03.707Z,6.92
2018-12-11T03:03:30.031Z,8.98
2018-12-11T03:05:56.342Z,8.30
2018-12-11T03:08:22.687Z,9.13
2018-12-11T03:10:49.045Z,11.08
2018-12-11T03:13:15.421Z,11.63
2018-12-11T03:15:41.799Z,8.58
2018-12-11T03:18:08.215Z,7.95
2018-12-11T03:20:34.529Z,8.95
2018-12-11T03:23:00.865Z,9.78
2018-12-11T03:25:27.219Z,6.03
2018-12-11T03:27:53.540Z,8.23
2018-12-11T03:30:19.922Z,8.80
2018-12-11T03:32:46.435Z,10.82
2018-12-11T03:35:12.736Z,9.95
2018-12-11T03:37:39.089Z,7.37
2018-12-11T03:40:05.631Z,9.05
2018-12-11T03:42:31.978Z,10.90
2018-12-11T03:44:58.286Z,8.23
2018-12-11T03:47:24.603Z,6.12
2018-12-11T03:49:50.923Z,6.50
2018-12-11T03:52:21.434Z,7.75
2018-12-11T03:54:45.605Z,9.98
2018-12-11T03:57:11.916Z,11.97
2018-12-11T03:59:38.353Z,13.05
2018-12-11T04:02:04.707Z,8.80
2018-12-11T04:04:31.030Z,10.48
2018-12-11T04:06:57.394Z,8.93
2018-12-11T04:09:23.722Z,8.60
2018-12-11T04:11:50.085Z,9.85
2018-12-11T04:14:16.830Z,10.00
2018-12-11T04:16:43.275Z,8.95
2018-12-11T04:19:09.612Z,11.95
2018-12-11T04:21:36.234Z,6.37
2018-12-11T04:24:02.633Z,9.75
2018-12-11T04:26:28.981Z,10.45
2018-12-11T04:28:55.379Z,6.62
2018-12-11T04:31:21.724Z,10.18
2018-12-11T04:33:48.014Z,7.83
2018-12-11T04:36:14.296Z,9.63
2018-12-11T04:38:40.642Z,7.50
2018-12-11T04:41:06.958Z,9.75
2018-12-11T04:43:33.222Z,14.63
2018-12-11T04:45:59.539Z,6.12
2018-12-11T04:48:25.864Z,8.20
2018-12-11T04:50:52.181Z,8.38
2018-12-11T04:53:18.547Z,8.00
2018-12-11T04:55:44.836Z,8.15
2018-12-11T04:58:11.134Z,7.20
2018-12-11T05:00:37.475Z,6.55
2018-12-11T05:03:03.854Z,9.50
2018-12-11T05:05:31.022Z,6.65
2018-12-11T05:07:57.370Z,5.80
2018-12-11T05:10:23.691Z,7.90
2018-12-11T05:12:50.009Z,9.60
2018-12-11T05:15:16.282Z,6.58
2018-12-11T05:17:42.583Z,5.67
2018-12-11T05:20:08.931Z,7.20
2018-12-11T05:22:35.207Z,7.85
2018-12-11T05:25:01.577Z,8.33
2018-12-11T05:27:27.952Z,9.30
2018-12-11T05:29:54.258Z,5.83
2018-12-11T05:32:20.539Z,8.68
2018-12-11T05:34:46.900Z,9.23
2018-12-11T05:37:13.360Z,8.43
2018-12-11T05:39:39.727Z,9.03
2018-12-11T05:42:06.066Z,8.50
2018-12-11T05:44:32.366Z,9.38
2018-12-11T05:46:58.672Z,10.68
2018-12-11T05:49:24.961Z,8.15
2018-12-11T05:51:51.355Z,8.45
2018-12-11T05:54:17.645Z,8.00
2018-12-11T05:56:43.980Z,10.75
2018-12-11T05:59:10.379Z,8.15
2018-12-11T06:01:36.846Z,6.53
2018-12-11T06:04:03.234Z,7.40
2018-12-11T06:06:29.533Z,10.53
2018-12-11T06:08:55.833Z,5.00
2018-12-11T06:11:22.125Z,8.75
2018-12-11T06:13:48.407Z,6.30
2018-12-11T06:16:14.948Z,6.67
2018-12-11T06:18:41.219Z,7.20
2018-12-11T06:21:07.577Z,6.92
2018-12-11T06:23:33.858Z,8.53
2018-12-11T06:26:00.177Z,5.55
2018-12-11T06:28:26.460Z,4.33
2018-12-11T06:30:52.761Z,9.35
2018-12-11T06:33:19.062Z,10.82
2018-12-11T06:35:45.342Z,8.73
2018-12-11T06:38:11.649Z,7.53
2018-12-11T06:40:37.988Z,5.87
2018-12-11T06:43:04.384Z,8.45
2018-12-11T06:45:30.726Z,6.40
2018-12-11T06:47:57.056Z,6.30
2018-12-11T06:50:25.375Z,7.03
2018-12-11T06:52:51.693Z,5.30
2018-12-11T06:55:17.983Z,8.65
2018-12-11T06:57:44.274Z,7.28
2018-12-11T07:00:10.611Z,5.05
2018-12-11T07:02:36.896Z,7.83
2018-12-11T07:05:04.227Z,5.05
2018-12-11T07:07:30.518Z,6.60
2018-12-11T07:09:56.796Z,11.65
2018-12-11T07:12:23.066Z,5.83
2018-12-11T07:14:49.406Z,6.03
2018-12-11T07:17:15.659Z,4.47
2018-12-11T07:19:41.931Z,7.53
2018-12-11T07:22:08.197Z,8.38
2018-12-11T07:24:34.493Z,6.33
2018-12-11T07:27:00.782Z,18.15
2018-12-11T07:29:27.182Z,6.47
2018-12-11T07:31:53.486Z,7.70
2018-12-11T07:34:19.797Z,8.40
2018-12-11T07:36:46.064Z,8.03
2018-12-11T07:39:12.324Z,6.60
2018-12-11T07:41:38.600Z,5.35
2018-12-11T07:44:04.855Z,7.62
2018-12-11T07:46:31.163Z,6.00
2018-12-11T07:48:57.430Z,4.37
2018-12-11T07:51:23.721Z,5.17
2018-12-11T07:53:50.029Z,9.58
2018-12-11T07:56:16.303Z,5.42
2018-12-11T07:58:42.610Z,8.63
2018-12-11T08:01:08.889Z,9.30
2018-12-11T08:03:35.162Z,5.00
2018-12-11T08:06:01.455Z,23.77
2018-12-11T08:08:27.728Z,6.62
2018-12-11T08:10:53.988Z,5.40
2018-12-11T08:13:20.304Z,8.48
2018-12-11T08:15:46.720Z,6.65
2018-12-11T08:18:13.072Z,5.30
2018-12-11T08:20:39.358Z,11.35
2018-12-11T08:23:05.664Z,10.40
2018-12-11T08:25:31.971Z,7.20
2018-12-11T08:27:58.261Z,7.72
2018-12-11T08:30:24.558Z,4.78
2018-12-11T08:32:50.868Z,7.03
2018-12-11T08:35:17.196Z,10.15
2018-12-11T08:37:43.547Z,5.50
2018-12-11T08:40:09.860Z,5.00
2018-12-11T08:42:36.183Z,5.17
2018-12-11T08:45:02.863Z,8.75
2018-12-11T08:47:29.169Z,6.35
2018-12-11T08:49:55.462Z,6.50
2018-12-11T08:52:21.820Z,6.03
2018-12-11T08:54:48.148Z,6.97
2018-12-11T08:57:14.474Z,5.85
2018-12-11T08:59:40.827Z,6.12
2018-12-11T09:02:07.083Z,3.75
2018-12-11T09:04:33.400Z,5.42
2018-12-11T09:06:59.765Z,6.37
2018-12-11T09:09:26.057Z,5.30
2018-12-11T09:11:52.504Z,6.37
2018-12-11T09:14:18.857Z,6.45
2018-12-11T09:16:45.179Z,6.85
2018-12-11T09:19:11.536Z,7.22
2018-12-11T09:21:37.856Z,5.35
2018-12-11T09:24:04.139Z,7.95
2018-12-11T09:26:30.472Z,5.35
2018-12-11T09:28:56.748Z,6.35
2018-12-11T09:31:23.084Z,7.58
2018-12-11T09:33:49.455Z,12.45
2018-12-11T09:36:15.738Z,9.70
2018-12-11T09:38:42.070Z,5.58
2018-12-11T09:41:08.644Z,8.70
2018-12-11T09:43:34.964Z,5.47
2018-12-11T09:46:01.251Z,7.42
2018-12-11T09:48:27.535Z,7.58
2018-12-11T09:50:53.863Z,5.00
2018-12-11T09:53:20.151Z,6.25
2018-12-11T09:55:46.532Z,7.30
2018-12-11T09:58:12.813Z,10.13
2018-12-11T10:00:39.197Z,9.23
2018-12-11T10:03:05.570Z,8.23
2018-12-11T10:05:31.919Z,10.40
2018-12-11T10:07:58.220Z,5.37
2018-12-11T10:10:24.600Z,5.08
2018-12-11T10:12:50.942Z,5.60
2018-12-11T10:15:17.289Z,6.22
2018-12-11T10:17:43.565Z,12.73
2018-12-11T10:20:10.107Z,10.30
2018-12-11T10:22:36.391Z,10.93
2018-12-11T10:25:03.143Z,8.35
2018-12-11T10:27:29.469Z,13.65
2018-12-11T10:29:55.760Z,11.48
2018-12-11T10:32:22.038Z,13.08
2018-12-11T10:34:48.349Z,11.43
2018-12-11T10:37:14.671Z,10.63
2018-12-11T10:39:40.991Z,12.40
2018-12-11T10:42:07.307Z,11.20
2018-12-11T10:44:33.649Z,10.65
2018-12-11T10:46:59.940Z,8.05
2018-12-11T10:49:26.288Z,10.10
2018-12-11T10:51:52.616Z,8.28
2018-12-11T10:54:18.947Z,8.58
2018-12-11T10:56:45.260Z,5.42
2018-12-11T10:59:11.587Z,7.12
2018-12-11T11:01:39.955Z,7.65
2018-12-11T11:04:06.495Z,8.63
2018-12-11T11:06:32.792Z,5.42
2018-12-11T11:08:59.077Z,6.50
2018-12-11T11:11:25.442Z,6.00
2018-12-11T11:13:51.751Z,5.35
2018-12-11T11:16:18.051Z,7.42
2018-12-11T11:18:44.340Z,6.80
2018-12-11T11:21:10.633Z,6.00
2018-12-11T11:23:36.907Z,6.53
2018-12-11T11:26:03.249Z,4.72
2018-12-11T11:28:29.534Z,4.47
2018-12-11T11:30:55.826Z,6.17
2018-12-11T11:33:22.145Z,4.30
2018-12-11T11:35:48.429Z,6.00
2018-12-11T11:38:14.703Z,7.47
2018-12-11T11:40:40.991Z,7.03
2018-12-11T11:43:07.257Z,11.63
2018-12-11T11:45:33.551Z,5.80
2018-12-11T11:47:59.850Z,8.13
2018-12-11T11:50:26.497Z,8.30
2018-12-11T11:52:52.746Z,6.90
2018-12-11T11:55:19.031Z,5.17
2018-12-11T11:57:45.287Z,8.53
2018-12-11T12:00:13.260Z,10.53
2018-12-11T12:02:39.547Z,7.95
2018-12-11T12:05:05.993Z,4.87
2018-12-11T12:07:32.273Z,5.50
2018-12-11T12:09:58.557Z,6.25
2018-12-11T12:12:24.892Z,4.60
2018-12-11T12:15:11.139Z,5.15
2018-12-11T12:17:37.433Z,5.30
2018-12-11T12:20:05.687Z,5.40
2018-12-11T12:22:31.986Z,7.40
2018-12-11T12:24:58.248Z,7.53
2018-12-11T12:27:24.520Z,4.55
2018-12-11T12:29:50.795Z,4.20
2018-12-11T12:32:17.075Z,5.15
2018-12-11T12:34:43.376Z,11.93
2018-12-11T12:37:09.655Z,7.08
2018-12-11T12:39:35.968Z,7.70
2018-12-11T12:42:02.266Z,6.80
2018-12-11T12:44:28.547Z,7.78
2018-12-11T12:46:54.832Z,6.42
2018-12-11T12:49:21.098Z,7.53
2018-12-11T12:51:47.389Z,9.43
2018-12-11T12:54:13.671Z,5.40
2018-12-11T12:56:39.939Z,3.75
2018-12-11T12:59:06.237Z,4.03
2018-12-11T13:01:32.515Z,3.98
2018-12-11T13:03:59.028Z,5.60
2018-12-11T13:06:25.798Z,4.78
2018-12-11T13:08:53.207Z,15.60
2018-12-11T13:11:19.500Z,10.48
2018-12-11T13:13:45.823Z,9.05
2018-12-11T13:16:12.878Z,3.62
2018-12-11T13:18:39.388Z,7.15
2018-12-11T13:21:05.675Z,4.30
2018-12-11T13:23:31.958Z,3.87
2018-12-11T13:25:58.220Z,6.83
2018-12-11T13:28:24.512Z,5.42
2018-12-11T13:30:50.778Z,4.37
2018-12-11T13:33:17.067Z,6.65
2018-12-11T13:35:43.370Z,4.55
2018-12-11T13:38:09.664Z,12.33
2018-12-11T13:40:36.279Z,4.25
2018-12-11T13:43:02.827Z,7.33
2018-12-11T13:45:29.184Z,3.30
2018-12-11T13:47:55.570Z,3.60
2018-12-11T13:50:22.001Z,11.35
2018-12-11T13:52:48.272Z,3.87
2018-12-11T13:55:14.628Z,5.83
2018-12-11T13:57:40.924Z,4.00
2018-12-11T14:00:07.263Z,3.87
2018-12-11T14:02:33.526Z,4.53
2018-12-11T14:04:59.856Z,5.67
2018-12-11T14:07:26.124Z,4.75
2018-12-11T14:09:52.391Z,5.50
2018-12-11T14:12:18.747Z,6.35
2018-12-11T14:14:45.028Z,5.50
2018-12-11T14:17:11.310Z,7.33
2018-12-11T14:19:37.576Z,4.00
2018-12-11T14:22:04.281Z,5.30
2018-12-11T14:24:30.586Z,3.92
2018-12-11T14:26:56.862Z,5.28
2018-12-11T14:29:23.123Z,4.28
2018-12-11T14:31:49.412Z,6.15
2018-12-11T14:34:15.834Z,3.70
2018-12-11T14:36:42.115Z,3.60
2018-12-11T14:39:08.520Z,4.58
2018-12-11T14:41:34.898Z,3.60
2018-12-11T14:44:01.202Z,3.95
2018-12-11T14:46:27.491Z,4.00
2018-12-11T14:48:53.881Z,3.92
2018-12-11T14:51:20.163Z,3.85
2018-12-11T14:53:46.414Z,3.87
2018-12-11T14:56:12.691Z,4.45
2018-12-11T14:58:38.967Z,3.05
2018-12-11T15:01:05.286Z,4.25
2018-12-11T15:03:31.552Z,4.05
2018-12-11T15:05:57.836Z,5.42
2018-12-11T15:08:24.097Z,4.22
2018-12-11T15:10:50.714Z,5.35
2018-12-11T15:13:17.005Z,3.60
2018-12-11T15:15:43.263Z,5.20
2018-12-11T15:18:09.560Z,4.00
2018-12-11T15:20:35.939Z,3.60
2018-12-11T15:23:02.234Z,5.10
2018-12-11T15:25:28.636Z,5.47
2018-12-11T15:27:54.973Z,5.45
2018-12-11T15:30:21.234Z,4.67
2018-12-11T15:32:47.539Z,5.00
2018-12-11T15:35:13.818Z,4.47
2018-12-11T15:37:40.094Z,4.67
2018-12-11T15:40:06.797Z,4.72
2018-12-11T15:42:33.223Z,4.83
2018-12-11T15:44:59.505Z,9.15
2018-12-11T15:47:25.804Z,9.20
2018-12-11T15:49:52.088Z,7.80
2018-12-11T15:52:18.350Z,5.37
2018-12-11T15:54:44.626Z,5.05
2018-12-11T15:57:10.935Z,8.28
2018-12-11T15:59:37.257Z,7.22
2018-12-11T16:02:03.552Z,8.18
2018-12-11T16:04:29.848Z,5.15
2018-12-11T16:06:56.157Z,5.75
2018-12-11T16:09:24.459Z,7.72
2018-12-11T16:11:50.763Z,7.95
2018-12-11T16:14:17.038Z,6.65
2018-12-11T16:16:43.435Z,5.53
2018-12-11T16:19:09.730Z,5.75
2018-12-11T16:21:35.992Z,7.08
2018-12-11T16:24:02.284Z,4.75
2018-12-11T16:26:28.576Z,4.83
2018-12-11T16:28:54.942Z,5.42
2018-12-11T16:31:21.278Z,6.20
2018-12-11T16:33:47.608Z,4.92
2018-12-11T16:36:13.895Z,4.70
2018-12-11T16:38:40.200Z,5.37
2018-12-11T16:41:06.511Z,6.10
2018-12-11T16:43:32.779Z,6.75
2018-12-11T16:45:59.092Z,5.90
2018-12-11T16:48:25.381Z,7.33
2018-12-11T16:50:51.759Z,5.47
2018-12-11T16:53:18.050Z,11.53
2018-12-11T16:55:44.403Z,6.00
2018-12-11T16:58:10.746Z,7.17
2018-12-11T17:00:37.170Z,6.50
2018-12-11T17:03:05.253Z,8.48
2018-12-11T17:05:32.347Z,6.37
2018-12-11T17:07:58.724Z,10.40
2018-12-11T17:10:24.974Z,8.85
2018-12-11T17:12:51.315Z,7.85
2018-12-11T17:15:18.632Z,7.25
2018-12-11T17:17:45.131Z,7.08
2018-12-11T17:20:11.406Z,7.92
2018-12-11T17:22:37.695Z,6.78
2018-12-11T17:25:04.529Z,8.75
2018-12-11T17:27:30.792Z,12.20
2018-12-11T17:29:57.090Z,7.03
2018-12-11T17:32:23.363Z,11.33
2018-12-11T17:34:49.611Z,7.85
2018-12-11T17:37:15.927Z,8.15
2018-12-11T17:39:42.208Z,7.58
2018-12-11T17:42:08.478Z,8.43
2018-12-11T17:44:34.766Z,7.10
2018-12-11T17:47:01.034Z,11.65
2018-12-11T17:49:27.344Z,10.13
2018-12-11T17:51:53.636Z,7.95
2018-12-11T17:54:19.899Z,9.00
2018-12-11T17:56:46.536Z,9.68
2018-12-11T17:59:13.256Z,8.50
2018-12-11T18:01:40.163Z,8.90
2018-12-11T18:04:06.443Z,9.08
2018-12-11T18:06:35.776Z,11.35
2018-12-11T18:09:04.022Z,10.70
2018-12-11T18:11:30.282Z,10.45
2018-12-11T18:13:56.558Z,11.03
2018-12-11T18:16:22.832Z,9.68
2018-12-11T18:18:49.087Z,9.28
2018-12-11T18:21:15.392Z,11.25
2018-12-11T18:23:41.677Z,14.03
2018-12-11T18:26:07.937Z,11.15
2018-12-11T18:28:34.238Z,11.28
2018-12-11T18:31:00.491Z,15.28
2018-12-11T18:33:26.772Z,12.68
2018-12-11T18:35:53.054Z,10.28
2018-12-11T18:38:19.361Z,12.18
2018-12-11T18:40:45.616Z,12.25
2018-12-11T18:43:11.975Z,13.55
2018-12-11T18:45:38.284Z,18.15
2018-12-11T18:48:04.557Z,13.70
2018-12-11T18:50:30.851Z,14.25
2018-12-11T18:52:57.108Z,13.80
2018-12-11T18:55:23.352Z,11.93
2018-12-11T18:57:49.631Z,12.82
2018-12-11T19:00:15.898Z,12.93
2018-12-11T19:02:42.313Z,14.40
2018-12-11T19:05:08.699Z,14.05
2018-12-11T19:07:34.979Z,11.83
2018-12-11T19:10:01.286Z,9.40
2018-12-11T19:12:27.535Z,11.38
2018-12-11T19:14:53.795Z,9.70
2018-12-11T19:17:20.076Z,12.90
2018-12-11T19:19:46.323Z,11.85
2018-12-11T19:22:12.615Z,12.18
2018-12-11T19:24:39.123Z,15.50
2018-12-11T19:27:05.418Z,12.93
2018-12-11T19:29:31.704Z,12.90
2018-12-11T19:31:57.996Z,9.98
2018-12-11T19:34:24.273Z,11.03
2018-12-11T19:36:50.551Z,9.40
2018-12-11T19:39:16.829Z,11.12
2018-12-11T19:41:43.145Z,13.60
2018-12-11T19:44:09.413Z,12.43
2018-12-11T19:46:35.691Z,11.83
2018-12-11T19:49:02.019Z,11.38
2018-12-11T19:51:28.275Z,12.30
2018-12-11T19:53:54.536Z,14.68
2018-12-11T19:56:21.248Z,13.62
2018-12-11T19:58:47.509Z,11.73
2018-12-11T20:01:14.017Z,14.10
2018-12-11T20:03:40.411Z,16.37
2018-12-11T20:06:06.671Z,13.62
2018-12-11T20:08:32.958Z,14.00
2018-12-11T20:10:59.232Z,15.58
2018-12-11T20:13:25.532Z,14.68
2018-12-11T20:15:51.795Z,13.95
2018-12-11T20:18:18.124Z,17.40
2018-12-11T20:20:44.407Z,14.93
2018-12-11T20:23:10.701Z,18.37
2018-12-11T20:25:37.088Z,13.53
2018-12-11T20:28:03.390Z,22.52
2018-12-11T20:30:29.654Z,16.10
2018-12-11T20:32:55.898Z,16.17
2018-12-11T20:35:22.161Z,14.10
2018-12-11T20:37:48.455Z,14.13
2018-12-11T20:40:14.740Z,14.33
2018-12-11T20:42:41.018Z,21.80
2018-12-11T20:45:07.503Z,16.02
2018-12-11T20:47:33.738Z,15.05
2018-12-11T20:50:00.006Z,13.83
2018-12-11T20:52:26.271Z,15.70
2018-12-11T20:54:52.542Z,14.73
2018-12-11T20:57:18.832Z,16.12
2018-12-11T20:59:45.131Z,16.80
2018-12-11T21:02:11.415Z,14.83
2018-12-11T21:04:37.662Z,13.72
2018-12-11T21:07:03.958Z,14.75
2018-12-11T21:09:30.330Z,19.35
2018-12-11T21:11:56.583Z,12.85
2018-12-11T21:14:22.907Z,15.63
2018-12-11T21:16:49.223Z,15.35
2018-12-11T21:19:15.645Z,14.80
2018-12-11T21:21:42.920Z,16.87
2018-12-11T21:24:09.563Z,14.33
2018-12-11T21:26:35.858Z,14.20
2018-12-11T21:29:02.248Z,18.05
2018-12-11T21:31:28.499Z,13.32
2018-12-11T21:33:54.757Z,16.60
2018-12-11T21:36:21.181Z,16.87
2018-12-11T21:38:47.467Z,13.75
2018-12-11T21:41:13.723Z,17.45
2018-12-11T21:43:40.004Z,17.20
2018-12-11T21:46:06.334Z,15.28
2018-12-11T21:48:32.618Z,17.25
2018-12-11T21:50:58.907Z,15.20
2018-12-11T21:53:25.158Z,14.58
2018-12-11T21:55:51.523Z,16.73
2018-12-11T21:58:18.016Z,15.28
2018-12-11T22:00:44.287Z,17.27
2018-12-11T22:03:10.985Z,18.52
2018-12-11T22:05:37.425Z,18.55
2018-12-11T22:08:03.701Z,15.13
2018-12-11T22:10:29.981Z,17.57
2018-12-11T22:12:56.259Z,14.40
2018-12-11T22:15:22.518Z,13.35
2018-12-11T22:17:48.803Z,18.70
2018-12-11T22:20:15.061Z,18.30
2018-12-11T22:22:41.365Z,12.40
2018-12-11T22:25:07.651Z,13.65
2018-12-11T22:27:33.923Z,16.30
2018-12-11T22:30:00.191Z,14.63
2018-12-11T22:32:26.469Z,17.80
2018-12-11T22:34:52.750Z,14.98
2018-12-11T22:37:19.019Z,14.15
2018-12-11T22:39:45.298Z,18.70
2018-12-11T22:42:11.595Z,18.95
2018-12-11T22:44:37.875Z,27.70
2018-12-11T22:47:04.196Z,18.00
2018-12-11T22:49:30.571Z,21.52
2018-12-11T22:51:56.827Z,14.40
2018-12-11T22:54:23.257Z,18.10
2018-12-11T22:56:49.545Z,15.28
2018-12-11T22:59:15.794Z,19.27
2018-12-11T23:01:42.167Z,15.65
2018-12-11T23:04:08.435Z,18.10
2018-12-11T23:06:34.667Z,18.60
2018-12-11T23:09:00.927Z,16.93
2018-12-11T23:11:27.167Z,21.20
2018-12-11T23:13:53.406Z,20.12
2018-12-11T23:16:19.671Z,16.70
2018-12-11T23:18:45.903Z,19.85
2018-12-11T23:21:12.191Z,17.32
2018-12-11T23:23:38.592Z,18.65
2018-12-11T23:26:04.846Z,19.10
2018-12-11T23:28:31.103Z,23.35
2018-12-11T23:30:57.364Z,24.52
2018-12-11T23:33:23.731Z,21.57
2018-12-11T23:35:50.001Z,22.37
2018-12-11T23:38:16.257Z,20.52
2018-12-11T23:40:42.536Z,24.63
2018-12-11T23:43:08.800Z,23.60
2018-12-11T23:45:35.060Z,21.97
2018-12-11T23:48:01.326Z,17.50
2018-12-11T23:50:27.562Z,20.95
2018-12-11T23:52:53.828Z,19.48
2018-12-11T23:55:20.084Z,20.10
2018-12-11T23:57:46.346Z,21.97
